Time,TemperatureF,DewpointF,PressureIn,WindDirection,WindDirectionDegrees,WindSpeedMPH,WindSpeedGustMPH,Humidity,HourlyPrecipIn,Conditions,Clouds,dailyrainin,SoftwareType,DateUTC
2013-09-05 00:02:00,68.6,58.4,29.87,WNW,292,3.0,4.0,70,0.00,,,0.00,LWC V2.00 B2112,2013-09-05 07:02:00,
2013-09-05 00:07:00,68.7,58.1,29.87,SW,221,0.0,3.0,69,0.00,,,0.00,LWC V2.00 B2112,2013-09-05 07:07:00,
2013-09-05 00:12:00,68.6,58.0,29.87,West,269,3.0,3.0,69,0.00,,,0.00,LWC V2.00 B2112,2013-09-05 07:12:00,
2013-09-05 00:17:00,68.5,58.3,29.87,WNW,284,3.0,4.0,70,0.00,,,0.00,LWC V2.00 B2112,2013-09-05 07:17:00,
2013-09-05 00:22:00,68.0,58.2,29.87,WNW,290,3.0,4.0,71,0.00,,,0.00,LWC V2.00 B2112,2013-09-05 07:22:00,
2013-09-05 00:27:00,68.0,58.2,29.87,NW,307,2.0,3.0,71,0.00,,,0.00,LWC V2.00 B2112,2013-09-05 07:27:00,
2013-09-05 00:32:00,68.0,58.6,29.87,SW,233,1.0,2.0,72,0.00,,,0.00,LWC V2.00 B2112,2013-09-05 07:32:00,
2013-09-05 00:37:00,67.4,58.0,29.87,West,274,4.0,4.0,72,0.00,,,0.00,LWC V2.00 B2112,2013-09-05 07:37:00,
2013-09-05 00:42:00,67.4,58.0,29.87,WNW,301,4.0,5.0,72,0.00,,,0.00,LWC V2.00 B2112,2013-09-05 07:42:00,
2013-09-05 00:47:00,67.2,57.9,29.87,West,269,4.0,6.0,72,0.00,,,0.00,LWC V2.00 B2112,2013-09-05 07:47:00,
2013-09-05 00:52:00,67.1,58.1,29.87,West,275,3.0,4.0,73,0.00,,,0.00,LWC V2.00 B2112,2013-09-05 07:52:00,
2013-09-05 00:57:00,66.9,58.0,29.87,WSW,258,3.0,4.0,73,0.00,,,0.00,LWC V2.00 B2112,2013-09-05 07:57:00,
2013-09-05 01:02:00,67.0,58.0,29.86,West,281,3.0,4.0,73,0.00,,,0.00,LWC V2.00 B2112,2013-09-05 08:02:00,
2013-09-05 01:07:00,67.0,57.7,29.86,NW,313,3.0,4.0,72,0.00,,,0.00,LWC V2.00 B2112,2013-09-05 08:07:00,
2013-09-05 01:12:00,66.8,57.9,29.86,WNW,300,2.0,3.0,73,0.00,,,0.00,LWC V2.00 B2112,2013-09-05 08:12:00,
2013-09-05 01:17:00,66.5,57.6,29.87,West,261,0.0,1.0,73,0.00,,,0.00,LWC V2.00 B2112,2013-09-05 08:17:00,
2013-09-05 01:22:00,66.3,57.8,29.87,West,273,3.0,4.0,74,0.00,,,0.00,LWC V2.00 B2112,2013-09-05 08:22:00,
2013-09-05 01:27:00,66.1,57.6,29.87,WNW,294,1.0,4.0,74,0.00,,,0.00,LWC V2.00 B2112,2013-09-05 08:27:00,
2013-09-05 01:32:00,65.9,57.7,29.87,WNW,302,2.0,3.0,75,0.00,,,0.00,LWC V2.00 B2112,2013-09-05 08:32:00,
2013-09-05 01:37:00,65.6,57.8,29.87,NW,305,3.0,4.0,76,0.00,,,0.00,LWC V2.00 B2112,2013-09-05 08:37:00,
2013-09-05 01:42:00,65.6,57.8,29.87,WNW,286,2.0,3.0,76,0.00,,,0.00,LWC V2.00 B2112,2013-09-05 08:42:00,
2013-09-05 01:47:00,65.8,58.0,29.87,West,271,1.0,2.0,76,0.00,,,0.00,LWC V2.00 B2112,2013-09-05 08:47:00,
2013-09-05 01:52:00,65.7,58.3,29.87,SW,221,2.0,2.0,77,0.00,,,0.00,LWC V2.00 B2112,2013-09-05 08:52:00,
2013-09-05 01:57:00,65.4,58.0,29.87,West,269,2.0,2.0,77,0.00,,,0.00,LWC V2.00 B2112,2013-09-05 08:57:00,
2013-09-05 02:02:00,65.2,58.2,29.88,NW,317,3.0,3.0,78,0.00,,,0.00,LWC V2.00 B2112,2013-09-05 09:02:00,
2013-09-05 02:07:00,65.1,58.4,29.89,WNW,302,1.0,2.0,79,0.00,,,0.00,LWC V2.00 B2112,2013-09-05 09:07:00,
2013-09-05 02:12:00,64.9,58.6,29.90,East,86,1.0,2.0,80,0.00,,,0.00,LWC V2.00 B2112,2013-09-05 09:12:00,
2013-09-05 02:17:00,64.7,58.4,29.89,WSW,239,3.0,7.0,80,0.00,,,0.00,LWC V2.00 B2112,2013-09-05 09:17:00,
2013-09-05 02:22:00,65.3,57.9,29.89,WNW,301,3.0,11.0,77,0.00,,,0.00,LWC V2.00 B2112,2013-09-05 09:22:00,
2013-09-05 02:27:00,65.7,57.9,29.88,West,269,4.0,4.0,76,0.00,,,0.00,LWC V2.00 B2112,2013-09-05 09:27:00,
2013-09-05 02:32:00,66.8,57.9,29.88,WNW,290,4.0,6.0,73,0.00,,,0.00,LWC V2.00 B2112,2013-09-05 09:32:00,
2013-09-05 02:37:00,67.1,58.1,29.88,West,260,3.0,4.0,73,0.00,,,0.00,LWC V2.00 B2112,2013-09-05 09:37:00,
2013-09-05 02:42:00,66.7,58.1,29.89,West,261,0.0,2.0,74,0.00,,,0.00,LWC V2.00 B2112,2013-09-05 09:42:00,
2013-09-05 02:47:00,66.4,57.9,29.89,NW,311,1.0,4.0,74,0.00,,,0.00,LWC V2.00 B2112,2013-09-05 09:47:00,
2013-09-05 02:52:00,66.5,57.6,29.89,WNW,290,1.0,2.0,73,0.00,,,0.00,LWC V2.00 B2112,2013-09-05 09:52:00,
2013-09-05 02:57:00,66.5,57.9,29.89,WNW,294,0.0,0.0,74,0.00,,,0.00,LWC V2.00 B2112,2013-09-05 09:57:00,
2013-09-05 03:02:00,66.5,57.9,29.88,WNW,294,0.0,0.0,74,0.00,,,0.00,LWC V2.00 B2112,2013-09-05 10:02:00,
2013-09-05 03:07:00,66.4,58.2,29.88,WNW,294,0.0,1.0,75,0.00,,,0.00,LWC V2.00 B2112,2013-09-05 10:07:00,
2013-09-05 03:12:00,66.2,57.7,29.88,West,274,3.0,4.0,74,0.00,,,0.00,LWC V2.00 B2112,2013-09-05 10:12:00,
2013-09-05 03:17:00,66.4,57.9,29.88,NW,317,2.0,3.0,74,0.00,,,0.00,LWC V2.00 B2112,2013-09-05 10:17:00,
2013-09-05 03:22:00,66.3,58.1,29.88,WNW,294,3.0,3.0,75,0.00,,,0.00,LWC V2.00 B2112,2013-09-05 10:22:00,
2013-09-05 03:27:00,66.3,57.8,29.88,WNW,287,5.0,7.0,74,0.00,,,0.00,LWC V2.00 B2112,2013-09-05 10:27:00,
2013-09-05 03:32:00,67.0,58.0,29.88,ENE,59,1.0,3.0,73,0.00,,,0.00,LWC V2.00 B2112,2013-09-05 10:32:00,
2013-09-05 03:37:00,67.0,58.4,29.88,ENE,61,1.0,1.0,74,0.00,,,0.00,LWC V2.00 B2112,2013-09-05 10:37:00,
2013-09-05 03:42:00,66.6,58.4,29.88,ENE,61,2.0,2.0,75,0.00,,,0.00,LWC V2.00 B2112,2013-09-05 10:42:00,
2013-09-05 03:47:00,66.3,58.5,29.88,SSW,192,1.0,3.0,76,0.00,,,0.00,LWC V2.00 B2112,2013-09-05 10:47:00,
2013-09-05 03:52:00,65.9,58.5,29.88,SSW,198,3.0,3.0,77,0.00,,,0.00,LWC V2.00 B2112,2013-09-05 10:52:00,
2013-09-05 03:57:00,65.6,58.5,29.88,NW,313,1.0,1.0,78,0.00,,,0.00,LWC V2.00 B2112,2013-09-05 10:57:00,
2013-09-05 04:02:00,65.5,59.2,29.88,NW,313,0.0,0.0,80,0.00,,,0.00,LWC V2.00 B2112,2013-09-05 11:02:00,
2013-09-05 04:07:00,65.3,59.0,29.88,West,270,2.0,3.0,80,0.00,,,0.00,LWC V2.00 B2112,2013-09-05 11:07:00,
2013-09-05 04:12:00,65.2,59.2,29.88,West,263,2.0,2.0,81,0.00,,,0.00,LWC V2.00 B2112,2013-09-05 11:12:00,
2013-09-05 04:17:00,64.9,58.9,29.88,West,263,0.0,1.0,81,0.00,,,0.00,LWC V2.00 B2112,2013-09-05 11:17:00,
2013-09-05 04:22:00,64.7,58.7,29.88,West,263,0.0,0.0,81,0.00,,,0.00,LWC V2.00 B2112,2013-09-05 11:22:00,
2013-09-05 04:27:00,64.4,58.4,29.88,West,263,0.0,1.0,81,0.00,,,0.00,LWC V2.00 B2112,2013-09-05 11:27:00,
2013-09-05 04:32:00,64.2,58.2,29.88,West,263,0.0,1.0,81,0.00,,,0.00,LWC V2.00 B2112,2013-09-05 11:32:00,
2013-09-05 04:37:00,63.9,58.6,29.89,West,263,0.0,0.0,83,0.00,,,0.00,LWC V2.00 B2112,2013-09-05 11:37:00,
2013-09-05 04:42:00,63.7,58.1,29.89,West,263,1.0,1.0,82,0.00,,,0.00,LWC V2.00 B2112,2013-09-05 11:42:00,
2013-09-05 04:47:00,63.4,58.5,29.90,West,265,2.0,3.0,84,0.00,,,0.00,LWC V2.00 B2112,2013-09-05 11:47:00,
2013-09-05 04:52:00,63.2,58.3,29.90,WNW,294,0.0,1.0,84,0.00,,,0.00,LWC V2.00 B2112,2013-09-05 11:52:00,
2013-09-05 04:57:00,63.1,58.2,29.90,ESE,105,2.0,2.0,84,0.00,,,0.00,LWC V2.00 B2112,2013-09-05 11:57:00,
2013-09-05 05:02:00,63.1,58.5,29.91,SSW,193,1.0,2.0,85,0.00,,,0.00,LWC V2.00 B2112,2013-09-05 12:02:00,
2013-09-05 05:07:00,63.0,58.1,29.91,NW,306,1.0,2.0,84,0.00,,,0.00,LWC V2.00 B2112,2013-09-05 12:07:00,
2013-09-05 05:12:00,63.0,58.1,29.91,NW,319,0.0,1.0,84,0.00,,,0.00,LWC V2.00 B2112,2013-09-05 12:12:00,
2013-09-05 05:17:00,63.1,58.5,29.91,NW,319,1.0,2.0,85,0.00,,,0.00,LWC V2.00 B2112,2013-09-05 12:17:00,
2013-09-05 05:22:00,63.1,58.5,29.91,West,273,0.0,2.0,85,0.00,,,0.00,LWC V2.00 B2112,2013-09-05 12:22:00,
2013-09-05 05:27:00,63.1,58.5,29.91,West,275,0.0,1.0,85,0.00,,,0.00,LWC V2.00 B2112,2013-09-05 12:27:00,
2013-09-05 05:32:00,63.1,58.5,29.91,West,275,0.0,1.0,85,0.00,,,0.00,LWC V2.00 B2112,2013-09-05 12:32:00,
2013-09-05 05:37:00,63.1,58.5,29.91,West,261,1.0,2.0,85,0.00,,,0.00,LWC V2.00 B2112,2013-09-05 12:37:00,
2013-09-05 05:42:00,63.2,58.9,29.91,West,261,0.0,0.0,86,0.00,,,0.00,LWC V2.00 B2112,2013-09-05 12:42:00,
2013-09-05 05:47:00,63.2,58.9,29.91,West,261,0.0,0.0,86,0.00,,,0.00,LWC V2.00 B2112,2013-09-05 12:47:00,
2013-09-05 05:52:00,63.2,58.6,29.90,West,274,1.0,2.0,85,0.00,,,0.00,LWC V2.00 B2112,2013-09-05 12:52:00,
2013-09-05 05:57:00,63.3,58.7,29.91,West,274,1.0,2.0,85,0.00,,,0.00,LWC V2.00 B2112,2013-09-05 12:57:00,
2013-09-05 06:02:00,63.3,58.7,29.91,NE,49,2.0,2.0,85,0.00,,,0.00,LWC V2.00 B2112,2013-09-05 13:02:00,
2013-09-05 06:07:00,63.4,58.5,29.91,NE,50,0.0,2.0,84,0.00,,,0.00,LWC V2.00 B2112,2013-09-05 13:07:00,
2013-09-05 06:12:00,63.7,58.4,29.91,WSW,254,1.0,2.0,83,0.00,,,0.00,LWC V2.00 B2112,2013-09-05 13:12:00,
2013-09-05 06:17:00,64.2,58.2,29.91,WNW,296,1.0,4.0,81,0.00,,,0.00,LWC V2.00 B2112,2013-09-05 13:17:00,
2013-09-05 06:22:00,64.7,58.4,29.91,WNW,284,2.0,3.0,80,0.00,,,0.00,LWC V2.00 B2112,2013-09-05 13:22:00,
2013-09-05 06:27:00,65.3,57.9,29.91,WNW,285,2.0,2.0,77,0.00,,,0.00,LWC V2.00 B2112,2013-09-05 13:27:00,
2013-09-05 06:32:00,65.8,58.0,29.91,West,275,2.0,3.0,76,0.00,,,0.00,LWC V2.00 B2112,2013-09-05 13:32:00,
2013-09-05 06:37:00,66.2,58.4,29.91,West,274,1.0,2.0,76,0.00,,,0.00,LWC V2.00 B2112,2013-09-05 13:37:00,
2013-09-05 06:42:00,66.0,58.2,29.91,WNW,284,2.0,2.0,76,0.00,,,0.00,LWC V2.00 B2112,2013-09-05 13:42:00,
2013-09-05 06:47:00,65.8,58.4,29.92,West,275,3.0,3.0,77,0.00,,,0.00,LWC V2.00 B2112,2013-09-05 13:47:00,
2013-09-05 06:52:00,65.6,58.5,29.92,WNW,283,3.0,4.0,78,0.00,,,0.00,LWC V2.00 B2112,2013-09-05 13:52:00,
2013-09-05 06:57:00,65.7,58.6,29.92,WNW,283,4.0,6.0,78,0.00,,,0.00,LWC V2.00 B2112,2013-09-05 13:57:00,
2013-09-05 07:02:00,66.0,58.6,29.92,WNW,286,3.0,6.0,77,0.00,,,0.00,LWC V2.00 B2112,2013-09-05 14:02:00,
2013-09-05 07:07:00,66.1,59.0,29.92,WNW,285,0.0,1.0,78,0.00,,,0.00,LWC V2.00 B2112,2013-09-05 14:07:00,
2013-09-05 07:12:00,66.0,58.6,29.91,NW,319,2.0,4.0,77,0.00,,,0.00,LWC V2.00 B2112,2013-09-05 14:12:00,
2013-09-05 07:17:00,66.1,58.3,29.91,West,270,2.0,3.0,76,0.00,,,0.00,LWC V2.00 B2112,2013-09-05 14:17:00,
2013-09-05 07:22:00,66.2,58.4,29.91,West,269,3.0,4.0,76,0.00,,,0.00,LWC V2.00 B2112,2013-09-05 14:22:00,
2013-09-05 07:27:00,66.7,58.5,29.92,West,277,2.0,4.0,75,0.00,,,0.00,LWC V2.00 B2112,2013-09-05 14:27:00,
2013-09-05 07:32:00,67.1,58.5,29.92,West,265,3.0,5.0,74,0.00,,,0.00,LWC V2.00 B2112,2013-09-05 14:32:00,
2013-09-05 07:37:00,67.5,58.5,29.92,West,259,0.0,1.0,73,0.00,,,0.00,LWC V2.00 B2112,2013-09-05 14:37:00,
2013-09-05 07:42:00,67.5,59.3,29.92,West,259,0.0,1.0,75,0.00,,,0.00,LWC V2.00 B2112,2013-09-05 14:42:00,
2013-09-05 07:47:00,67.5,59.3,29.92,West,264,1.0,2.0,75,0.00,,,0.00,LWC V2.00 B2112,2013-09-05 14:47:00,
2013-09-05 07:52:00,67.5,59.3,29.92,West,271,2.0,3.0,75,0.00,,,0.00,LWC V2.00 B2112,2013-09-05 14:52:00,
2013-09-05 07:57:00,67.9,58.9,29.92,WNW,292,0.0,2.0,73,0.00,,,0.00,LWC V2.00 B2112,2013-09-05 14:57:00,
2013-09-05 08:02:00,68.1,59.9,29.92,WNW,292,0.0,2.0,75,0.00,,,0.00,LWC V2.00 B2112,2013-09-05 15:02:00,
2013-09-05 08:07:00,68.1,60.6,29.93,West,268,1.0,1.0,77,0.00,,,0.00,LWC V2.00 B2112,2013-09-05 15:07:00,
2013-09-05 08:12:00,68.0,60.5,29.93,West,267,0.0,1.0,77,0.00,,,0.00,LWC V2.00 B2112,2013-09-05 15:12:00,
2013-09-05 08:17:00,68.2,61.4,29.93,West,267,0.0,0.0,79,0.00,,,0.00,LWC V2.00 B2112,2013-09-05 15:17:00,
2013-09-05 08:22:00,68.5,60.6,29.93,West,267,1.0,1.0,76,0.00,,,0.00,LWC V2.00 B2112,2013-09-05 15:22:00,
2013-09-05 08:27:00,69.0,61.8,29.93,West,267,0.0,1.0,78,0.00,,,0.00,LWC V2.00 B2112,2013-09-05 15:27:00,
2013-09-05 08:32:00,69.4,61.1,29.93,West,267,0.0,0.0,75,0.00,,,0.00,LWC V2.00 B2112,2013-09-05 15:32:00,
2013-09-05 08:37:00,69.7,60.6,29.93,West,267,2.0,2.0,73,0.00,,,0.00,LWC V2.00 B2112,2013-09-05 15:37:00,
2013-09-05 08:42:00,70.1,59.0,29.92,NNW,329,1.0,5.0,68,0.00,,,0.00,LWC V2.00 B2112,2013-09-05 15:42:00,
2013-09-05 08:47:00,70.5,59.0,29.93,ENE,67,1.0,3.0,67,0.00,,,0.00,LWC V2.00 B2112,2013-09-05 15:47:00,
2013-09-05 08:52:00,70.9,59.8,29.92,NW,326,5.0,5.0,68,0.00,,,0.00,LWC V2.00 B2112,2013-09-05 15:52:00,
2013-09-05 08:57:00,71.1,59.6,29.92,NW,306,2.0,4.0,67,0.00,,,0.00,LWC V2.00 B2112,2013-09-05 15:57:00,
2013-09-05 09:02:00,71.3,59.8,29.92,NNW,331,2.0,3.0,67,0.00,,,0.00,LWC V2.00 B2112,2013-09-05 16:02:00,
2013-09-05 09:07:00,71.6,59.2,29.92,NNW,329,3.0,6.0,65,0.00,,,0.00,LWC V2.00 B2112,2013-09-05 16:07:00,
2013-09-05 09:12:00,71.9,59.0,29.92,WNW,294,1.0,3.0,64,0.00,,,0.00,LWC V2.00 B2112,2013-09-05 16:12:00,
2013-09-05 09:17:00,72.2,62.7,29.92,East,86,1.0,1.0,72,0.00,,,0.00,LWC V2.00 B2112,2013-09-05 16:17:00,
2013-09-05 09:22:00,72.2,61.9,29.92,ESE,117,0.0,1.0,70,0.00,,,0.00,LWC V2.00 B2112,2013-09-05 16:22:00,
2013-09-05 09:27:00,72.2,62.3,29.92,ESE,117,0.0,1.0,71,0.00,,,0.00,LWC V2.00 B2112,2013-09-05 16:27:00,
2013-09-05 09:32:00,72.2,60.6,29.92,ESE,117,0.0,0.0,67,0.00,,,0.00,LWC V2.00 B2112,2013-09-05 16:32:00,
2013-09-05 09:37:00,72.4,63.2,29.92,ESE,117,0.0,1.0,73,0.00,,,0.00,LWC V2.00 B2112,2013-09-05 16:37:00,
2013-09-05 09:42:00,72.6,60.6,29.91,ESE,117,0.0,1.0,66,0.00,,,0.00,LWC V2.00 B2112,2013-09-05 16:42:00,
2013-09-05 09:47:00,72.8,63.6,29.91,ESE,117,0.0,0.0,73,0.00,,,0.00,LWC V2.00 B2112,2013-09-05 16:47:00,
2013-09-05 09:52:00,73.1,61.0,29.91,ESE,117,0.0,1.0,66,0.00,,,0.00,LWC V2.00 B2112,2013-09-05 16:52:00,
2013-09-05 09:57:00,73.5,63.1,29.91,ESE,117,1.0,1.0,70,0.00,,,0.00,LWC V2.00 B2112,2013-09-05 16:57:00,
2013-09-05 10:02:00,73.7,62.5,29.91,ESE,117,1.0,1.0,68,0.00,,,0.00,LWC V2.00 B2112,2013-09-05 17:02:00,
2013-09-05 10:07:00,73.8,63.8,29.91,East,94,1.0,2.0,71,0.00,,,0.00,LWC V2.00 B2112,2013-09-05 17:07:00,
2013-09-05 10:12:00,73.7,64.1,29.91,East,94,1.0,2.0,72,0.00,,,0.00,LWC V2.00 B2112,2013-09-05 17:12:00,
2013-09-05 10:17:00,73.6,64.0,29.91,East,81,2.0,2.0,72,0.00,,,0.00,LWC V2.00 B2112,2013-09-05 17:17:00,
2013-09-05 10:22:00,73.5,62.7,29.91,East,88,1.0,2.0,69,0.00,,,0.00,LWC V2.00 B2112,2013-09-05 17:22:00,
2013-09-05 10:27:00,73.3,63.3,29.91,East,88,1.0,2.0,71,0.00,,,0.00,LWC V2.00 B2112,2013-09-05 17:27:00,
2013-09-05 10:32:00,73.2,62.4,29.90,ESE,111,2.0,2.0,69,0.00,,,0.00,LWC V2.00 B2112,2013-09-05 17:32:00,
2013-09-05 10:37:00,73.2,62.8,29.90,East,98,1.0,2.0,70,0.00,,,0.00,LWC V2.00 B2112,2013-09-05 17:37:00,
2013-09-05 10:42:00,73.5,62.3,29.90,East,98,1.0,2.0,68,0.00,,,0.00,LWC V2.00 B2112,2013-09-05 17:42:00,
2013-09-05 10:47:00,73.9,63.1,29.90,East,98,1.0,2.0,69,0.00,,,0.00,LWC V2.00 B2112,2013-09-05 17:47:00,
2013-09-05 10:52:00,74.4,63.5,29.90,East,97,0.0,2.0,69,0.00,,,0.00,LWC V2.00 B2112,2013-09-05 17:52:00,
2013-09-05 10:57:00,75.1,62.9,29.90,East,98,1.0,2.0,66,0.00,,,0.00,LWC V2.00 B2112,2013-09-05 17:57:00,
2013-09-05 11:02:00,75.9,62.4,29.90,East,92,0.0,1.0,63,0.00,,,0.00,LWC V2.00 B2112,2013-09-05 18:02:00,
2013-09-05 11:07:00,76.7,62.2,29.90,SE,128,1.0,3.0,61,0.00,,,0.00,LWC V2.00 B2112,2013-09-05 18:07:00,
2013-09-05 11:12:00,77.2,62.2,29.90,SE,140,1.0,2.0,60,0.00,,,0.00,LWC V2.00 B2112,2013-09-05 18:12:00,
2013-09-05 11:17:00,77.5,62.0,29.90,South,175,1.0,1.0,59,0.00,,,0.00,LWC V2.00 B2112,2013-09-05 18:17:00,
2013-09-05 11:22:00,77.8,62.3,29.90,SSE,148,2.0,2.0,59,0.00,,,0.00,LWC V2.00 B2112,2013-09-05 18:22:00,
2013-09-05 11:27:00,78.3,63.7,29.90,SE,136,1.0,3.0,61,0.00,,,0.00,LWC V2.00 B2112,2013-09-05 18:27:00,
2013-09-05 11:32:00,78.9,61.8,29.90,SSE,163,1.0,3.0,56,0.00,,,0.00,LWC V2.00 B2112,2013-09-05 18:32:00,
2013-09-05 11:37:00,79.1,59.9,29.90,SSE,155,1.0,4.0,52,0.00,,,0.00,LWC V2.00 B2112,2013-09-05 18:37:00,
2013-09-05 11:42:00,78.9,62.8,29.89,ESE,123,3.0,3.0,58,0.00,,,0.00,LWC V2.00 B2112,2013-09-05 18:42:00,
2013-09-05 11:47:00,78.6,64.9,29.89,ESE,108,2.0,3.0,63,0.00,,,0.00,LWC V2.00 B2112,2013-09-05 18:47:00,
2013-09-05 11:52:00,78.7,63.6,29.89,ESE,105,1.0,2.0,60,0.00,,,0.00,LWC V2.00 B2112,2013-09-05 18:52:00,
2013-09-05 11:57:00,79.0,60.9,29.89,SE,129,2.0,3.0,54,0.00,,,0.00,LWC V2.00 B2112,2013-09-05 18:57:00,
2013-09-05 12:02:00,79.4,60.8,29.88,ENE,69,1.0,3.0,53,0.00,,,0.00,LWC V2.00 B2112,2013-09-05 19:02:00,
2013-09-05 12:07:00,79.7,61.0,29.88,ENE,76,0.0,1.0,53,0.00,,,0.00,LWC V2.00 B2112,2013-09-05 19:07:00,
2013-09-05 12:12:00,80.0,61.3,29.88,SW,216,2.0,6.0,53,0.00,,,0.00,LWC V2.00 B2112,2013-09-05 19:12:00,
2013-09-05 12:17:00,80.1,60.9,29.88,WSW,242,1.0,5.0,52,0.00,,,0.00,LWC V2.00 B2112,2013-09-05 19:17:00,
2013-09-05 12:22:00,80.3,61.0,29.88,NNW,342,4.0,5.0,52,0.00,,,0.00,LWC V2.00 B2112,2013-09-05 19:22:00,
2013-09-05 12:27:00,80.8,59.8,29.88,NNW,333,1.0,2.0,49,0.00,,,0.00,LWC V2.00 B2112,2013-09-05 19:27:00,
2013-09-05 12:32:00,81.1,62.9,29.88,East,97,3.0,3.0,54,0.00,,,0.00,LWC V2.00 B2112,2013-09-05 19:32:00,
2013-09-05 12:37:00,80.8,61.0,29.88,SSE,161,4.0,4.0,51,0.00,,,0.00,LWC V2.00 B2112,2013-09-05 19:37:00,
2013-09-05 12:42:00,80.9,62.1,29.88,ENE,57,2.0,3.0,53,0.00,,,0.00,LWC V2.00 B2112,2013-09-05 19:42:00,
2013-09-05 12:47:00,81.0,60.6,29.88,ENE,69,0.0,2.0,50,0.00,,,0.00,LWC V2.00 B2112,2013-09-05 19:47:00,
2013-09-05 12:52:00,81.6,60.6,29.87,NNE,20,1.0,2.0,49,0.00,,,0.00,LWC V2.00 B2112,2013-09-05 19:52:00,
2013-09-05 12:57:00,82.3,60.0,29.87,East,96,2.0,3.0,47,0.00,,,0.00,LWC V2.00 B2112,2013-09-05 19:57:00,
2013-09-05 13:02:00,82.6,63.2,29.87,West,271,1.0,1.0,52,0.00,,,0.00,LWC V2.00 B2112,2013-09-05 20:02:00,
2013-09-05 13:07:00,82.7,60.4,29.86,SE,146,2.0,4.0,47,0.00,,,0.00,LWC V2.00 B2112,2013-09-05 20:07:00,
2013-09-05 13:12:00,82.9,60.0,29.86,South,170,1.0,2.0,46,0.00,,,0.00,LWC V2.00 B2112,2013-09-05 20:12:00,
2013-09-05 13:17:00,83.6,59.3,29.86,WNW,291,3.0,5.0,44,0.00,,,0.00,LWC V2.00 B2112,2013-09-05 20:17:00,
2013-09-05 13:22:00,83.9,59.6,29.86,NW,310,1.0,4.0,44,0.00,,,0.00,LWC V2.00 B2112,2013-09-05 20:22:00,
2013-09-05 13:27:00,84.1,61.7,29.85,NNE,32,3.0,5.0,47,0.00,,,0.00,LWC V2.00 B2112,2013-09-05 20:27:00,
2013-09-05 13:32:00,83.7,59.4,29.85,NE,56,2.0,6.0,44,0.00,,,0.00,LWC V2.00 B2112,2013-09-05 20:32:00,
2013-09-05 13:37:00,83.1,58.3,29.85,WSW,253,4.0,5.0,43,0.00,,,0.00,LWC V2.00 B2112,2013-09-05 20:37:00,
2013-09-05 13:42:00,82.5,59.0,29.85,SW,227,1.0,3.0,45,0.00,,,0.00,LWC V2.00 B2112,2013-09-05 20:42:00,
2013-09-05 13:47:00,82.0,59.8,29.84,ESE,107,1.0,4.0,47,0.00,,,0.00,LWC V2.00 B2112,2013-09-05 20:47:00,
2013-09-05 13:52:00,81.5,59.9,29.84,NNW,332,1.0,6.0,48,0.00,,,0.00,LWC V2.00 B2112,2013-09-05 20:52:00,
2013-09-05 13:57:00,82.1,58.6,29.84,NNE,13,1.0,4.0,45,0.00,,,0.00,LWC V2.00 B2112,2013-09-05 20:57:00,
2013-09-05 14:02:00,82.8,59.9,29.84,SE,146,2.0,4.0,46,0.00,,,0.00,LWC V2.00 B2112,2013-09-05 21:02:00,
2013-09-05 14:07:00,82.9,59.3,29.84,SE,128,1.0,2.0,45,0.00,,,0.00,LWC V2.00 B2112,2013-09-05 21:07:00,
2013-09-05 14:12:00,82.9,59.3,29.83,West,277,1.0,3.0,45,0.00,,,0.00,LWC V2.00 B2112,2013-09-05 21:12:00,
2013-09-05 14:17:00,83.4,61.0,29.83,SW,219,0.0,1.0,47,0.00,,,0.00,LWC V2.00 B2112,2013-09-05 21:17:00,
2013-09-05 14:22:00,84.0,57.7,29.83,NNE,12,2.0,4.0,41,0.00,,,0.00,LWC V2.00 B2112,2013-09-05 21:22:00,
2013-09-05 14:27:00,84.6,58.3,29.83,East,101,3.0,8.0,41,0.00,,,0.00,LWC V2.00 B2112,2013-09-05 21:27:00,
2013-09-05 14:32:00,84.4,58.1,29.83,SE,138,3.0,4.0,41,0.00,,,0.00,LWC V2.00 B2112,2013-09-05 21:32:00,
2013-09-05 14:37:00,84.2,59.2,29.82,ENE,71,3.0,3.0,43,0.00,,,0.00,LWC V2.00 B2112,2013-09-05 21:37:00,
2013-09-05 14:42:00,84.2,60.5,29.82,WSW,238,2.0,2.0,45,0.00,,,0.00,LWC V2.00 B2112,2013-09-05 21:42:00,
2013-09-05 14:47:00,84.7,59.0,29.82,SW,234,1.0,3.0,42,0.00,,,0.00,LWC V2.00 B2112,2013-09-05 21:47:00,
2013-09-05 14:52:00,85.0,59.3,29.82,West,275,4.0,5.0,42,0.00,,,0.00,LWC V2.00 B2112,2013-09-05 21:52:00,
2013-09-05 14:57:00,85.4,59.7,29.82,SW,218,4.0,5.0,42,0.00,,,0.00,LWC V2.00 B2112,2013-09-05 21:57:00,
2013-09-05 15:02:00,85.4,59.0,29.82,WSW,244,0.0,4.0,41,0.00,,,0.00,LWC V2.00 B2112,2013-09-05 22:02:00,
2013-09-05 15:07:00,85.1,56.6,29.82,SE,132,2.0,4.0,38,0.00,,,0.00,LWC V2.00 B2112,2013-09-05 22:07:00,
2013-09-05 15:12:00,84.7,57.7,29.81,ESE,122,2.0,9.0,40,0.00,,,0.00,LWC V2.00 B2112,2013-09-05 22:12:00,
2013-09-05 15:17:00,84.3,58.0,29.81,SSE,150,3.0,7.0,41,0.00,,,0.00,LWC V2.00 B2112,2013-09-05 22:17:00,
2013-09-05 15:22:00,84.0,58.4,29.81,NNW,337,2.0,4.0,42,0.00,,,0.00,LWC V2.00 B2112,2013-09-05 22:22:00,
2013-09-05 15:27:00,84.1,56.4,29.81,SSE,157,0.0,1.0,39,0.00,,,0.00,LWC V2.00 B2112,2013-09-05 22:27:00,
2013-09-05 15:32:00,84.5,58.2,29.81,SSE,168,0.0,1.0,41,0.00,,,0.00,LWC V2.00 B2112,2013-09-05 22:32:00,
2013-09-05 15:37:00,84.8,59.1,29.80,South,172,0.0,2.0,42,0.00,,,0.00,LWC V2.00 B2112,2013-09-05 22:37:00,
2013-09-05 15:42:00,84.8,55.6,29.80,West,275,1.0,6.0,37,0.00,,,0.00,LWC V2.00 B2112,2013-09-05 22:42:00,
2013-09-05 15:47:00,85.1,58.7,29.80,WNW,302,1.0,1.0,41,0.00,,,0.00,LWC V2.00 B2112,2013-09-05 22:47:00,
2013-09-05 15:52:00,84.5,58.2,29.80,East,94,2.0,3.0,41,0.00,,,0.00,LWC V2.00 B2112,2013-09-05 22:52:00,
2013-09-05 15:57:00,84.1,59.8,29.80,ESE,111,2.0,6.0,44,0.00,,,0.00,LWC V2.00 B2112,2013-09-05 22:57:00,
2013-09-05 16:02:00,83.7,60.1,29.80,SSE,155,2.0,2.0,45,0.00,,,0.00,LWC V2.00 B2112,2013-09-05 23:02:00,
2013-09-05 16:07:00,83.7,57.5,29.79,SSE,157,0.0,1.0,41,0.00,,,0.00,LWC V2.00 B2112,2013-09-05 23:07:00,
2013-09-05 16:12:00,84.0,55.6,29.79,NW,311,1.0,2.0,38,0.00,,,0.00,LWC V2.00 B2112,2013-09-05 23:12:00,
2013-09-05 16:17:00,84.3,57.3,29.78,SW,236,1.0,2.0,40,0.00,,,0.00,LWC V2.00 B2112,2013-09-05 23:17:00,
2013-09-05 16:22:00,84.6,58.3,29.78,SW,221,2.0,3.0,41,0.00,,,0.00,LWC V2.00 B2112,2013-09-05 23:22:00,
2013-09-05 16:27:00,84.9,55.7,29.78,West,269,3.0,4.0,37,0.00,,,0.00,LWC V2.00 B2112,2013-09-05 23:27:00,
2013-09-05 16:32:00,85.2,56.0,29.78,West,277,0.0,1.0,37,0.00,,,0.00,LWC V2.00 B2112,2013-09-05 23:32:00,
2013-09-05 16:37:00,85.4,60.3,29.77,NE,36,3.0,4.0,43,0.00,,,0.00,LWC V2.00 B2112,2013-09-05 23:37:00,
2013-09-05 16:42:00,85.3,57.5,29.77,SSE,158,1.0,2.0,39,0.00,,,0.00,LWC V2.00 B2112,2013-09-05 23:42:00,
2013-09-05 16:47:00,85.2,58.1,29.77,WSW,250,3.0,4.0,40,0.00,,,0.00,LWC V2.00 B2112,2013-09-05 23:47:00,
2013-09-05 16:52:00,85.0,57.9,29.77,West,274,6.0,6.0,40,0.00,,,0.00,LWC V2.00 B2112,2013-09-05 23:52:00,
2013-09-05 16:57:00,84.9,56.4,29.77,WSW,245,2.0,3.0,38,0.00,,,0.00,LWC V2.00 B2112,2013-09-05 23:57:00,
2013-09-05 17:02:00,84.9,55.7,29.77,SE,138,0.0,1.0,37,0.00,,,0.00,LWC V2.00 B2112,2013-09-06 00:02:00,
2013-09-05 17:07:00,84.8,57.1,29.77,NNE,22,1.0,2.0,39,0.00,,,0.00,LWC V2.00 B2112,2013-09-06 00:07:00,
2013-09-05 17:12:00,84.7,55.5,29.76,ENE,60,1.0,2.0,37,0.00,,,0.00,LWC V2.00 B2112,2013-09-06 00:12:00,
2013-09-05 17:17:00,85.0,55.8,29.76,NW,311,2.0,4.0,37,0.00,,,0.00,LWC V2.00 B2112,2013-09-06 00:17:00,
2013-09-05 17:22:00,85.0,54.2,29.76,SSW,202,0.0,2.0,35,0.00,,,0.00,LWC V2.00 B2112,2013-09-06 00:22:00,
2013-09-05 17:27:00,85.2,56.7,29.76,North,0,5.0,8.0,38,0.00,,,0.00,LWC V2.00 B2112,2013-09-06 00:27:00,
2013-09-05 17:32:00,85.1,55.1,29.75,North,9,3.0,5.0,36,0.00,,,0.00,LWC V2.00 B2112,2013-09-06 00:32:00,
2013-09-05 17:37:00,84.9,58.5,29.76,SE,138,2.0,2.0,41,0.00,,,0.00,LWC V2.00 B2112,2013-09-06 00:37:00,
2013-09-05 17:42:00,84.0,62.2,29.75,East,94,1.0,3.0,48,0.00,,,0.00,LWC V2.00 B2112,2013-09-06 00:42:00,
2013-09-05 17:47:00,82.9,61.7,29.75,East,94,0.0,1.0,49,0.00,,,0.00,LWC V2.00 B2112,2013-09-06 00:47:00,
2013-09-05 17:52:00,81.9,61.4,29.75,East,94,0.0,2.0,50,0.00,,,0.00,LWC V2.00 B2112,2013-09-06 00:52:00,
2013-09-05 17:57:00,81.2,64.5,29.75,East,94,0.0,1.0,57,0.00,,,0.00,LWC V2.00 B2112,2013-09-06 00:57:00,
2013-09-05 18:02:00,80.8,64.6,29.75,East,94,0.0,0.0,58,0.00,,,0.00,LWC V2.00 B2112,2013-09-06 01:02:00,
2013-09-05 18:07:00,80.3,62.6,29.75,East,94,1.0,2.0,55,0.00,,,0.00,LWC V2.00 B2112,2013-09-06 01:07:00,
2013-09-05 18:12:00,79.8,64.2,29.74,East,94,0.0,0.0,59,0.00,,,0.00,LWC V2.00 B2112,2013-09-06 01:12:00,
2013-09-05 18:17:00,79.3,63.2,29.74,East,94,0.0,0.0,58,0.00,,,0.00,LWC V2.00 B2112,2013-09-06 01:17:00,
2013-09-05 18:22:00,78.4,64.3,29.74,East,94,1.0,2.0,62,0.00,,,0.00,LWC V2.00 B2112,2013-09-06 01:22:00,
2013-09-05 18:27:00,77.7,65.0,29.74,East,94,0.0,0.0,65,0.00,,,0.00,LWC V2.00 B2112,2013-09-06 01:27:00,
2013-09-05 18:32:00,77.2,63.2,29.74,East,94,0.0,0.0,62,0.00,,,0.00,LWC V2.00 B2112,2013-09-06 01:32:00,
2013-09-05 18:37:00,76.5,63.8,29.75,East,94,1.0,1.0,65,0.00,,,0.00,LWC V2.00 B2112,2013-09-06 01:37:00,
2013-09-05 18:42:00,75.8,63.2,29.75,East,94,0.0,1.0,65,0.00,,,0.00,LWC V2.00 B2112,2013-09-06 01:42:00,
2013-09-05 18:47:00,75.3,62.7,29.74,East,94,1.0,2.0,65,0.00,,,0.00,LWC V2.00 B2112,2013-09-06 01:47:00,
2013-09-05 18:52:00,74.9,62.3,29.74,East,94,0.0,0.0,65,0.00,,,0.00,LWC V2.00 B2112,2013-09-06 01:52:00,
2013-09-05 18:57:00,74.6,62.9,29.74,East,94,0.0,2.0,67,0.00,,,0.00,LWC V2.00 B2112,2013-09-06 01:57:00,
2013-09-05 19:02:00,74.2,62.5,29.74,East,94,0.0,0.0,67,0.00,,,0.00,LWC V2.00 B2112,2013-09-06 02:02:00,
2013-09-05 19:07:00,73.9,63.1,29.74,East,94,0.0,0.0,69,0.00,,,0.00,LWC V2.00 B2112,2013-09-06 02:07:00,
2013-09-05 19:12:00,73.8,63.8,29.74,East,94,1.0,2.0,71,0.00,,,0.00,LWC V2.00 B2112,2013-09-06 02:12:00,
2013-09-05 19:17:00,73.7,64.9,29.74,East,94,0.0,0.0,74,0.00,,,0.00,LWC V2.00 B2112,2013-09-06 02:17:00,
2013-09-05 19:22:00,73.5,63.9,29.74,East,94,0.0,0.0,72,0.00,,,0.00,LWC V2.00 B2112,2013-09-06 02:22:00,
2013-09-05 19:27:00,73.3,64.1,29.74,East,94,0.0,0.0,73,0.00,,,0.00,LWC V2.00 B2112,2013-09-06 02:27:00,
2013-09-05 19:32:00,73.1,64.7,29.75,East,94,0.0,1.0,75,0.00,,,0.00,LWC V2.00 B2112,2013-09-06 02:32:00,
2013-09-05 19:37:00,73.0,64.2,29.75,East,94,0.0,1.0,74,0.00,,,0.00,LWC V2.00 B2112,2013-09-06 02:37:00,
2013-09-05 19:42:00,73.0,64.6,29.74,East,94,0.0,1.0,75,0.00,,,0.00,LWC V2.00 B2112,2013-09-06 02:42:00,
2013-09-05 19:47:00,72.9,64.5,29.74,East,94,1.0,1.0,75,0.00,,,0.00,LWC V2.00 B2112,2013-09-06 02:47:00,
2013-09-05 19:52:00,72.9,63.7,29.74,West,263,0.0,3.0,73,0.00,,,0.00,LWC V2.00 B2112,2013-09-06 02:52:00,
2013-09-05 19:57:00,72.9,62.9,29.74,West,263,0.0,1.0,71,0.00,,,0.00,LWC V2.00 B2112,2013-09-06 02:57:00,
2013-09-05 20:02:00,73.0,63.0,29.74,West,269,1.0,2.0,71,0.00,,,0.00,LWC V2.00 B2112,2013-09-06 03:02:00,
2013-09-05 20:07:00,73.1,62.7,29.73,WNW,290,2.0,3.0,70,0.00,,,0.00,LWC V2.00 B2112,2013-09-06 03:07:00,
2013-09-05 20:12:00,73.3,62.9,29.73,WNW,298,1.0,2.0,70,0.00,,,0.00,LWC V2.00 B2112,2013-09-06 03:12:00,
2013-09-05 20:17:00,73.3,63.3,29.73,WNW,303,0.0,1.0,71,0.00,,,0.00,LWC V2.00 B2112,2013-09-06 03:17:00,
2013-09-05 20:22:00,73.3,63.7,29.73,WNW,303,0.0,1.0,72,0.00,,,0.00,LWC V2.00 B2112,2013-09-06 03:22:00,
2013-09-05 20:27:00,73.1,63.9,29.72,WNW,303,1.0,2.0,73,0.00,,,0.00,LWC V2.00 B2112,2013-09-06 03:27:00,
2013-09-05 20:32:00,73.0,63.0,29.72,WNW,286,1.0,3.0,71,0.00,,,0.00,LWC V2.00 B2112,2013-09-06 03:32:00,
2013-09-05 20:37:00,72.9,62.9,29.72,WNW,286,0.0,0.0,71,0.00,,,0.00,LWC V2.00 B2112,2013-09-06 03:37:00,
2013-09-05 20:42:00,72.7,62.7,29.72,WNW,286,0.0,1.0,71,0.00,,,0.00,LWC V2.00 B2112,2013-09-06 03:42:00,
2013-09-05 20:47:00,72.5,62.9,29.72,WNW,286,1.0,2.0,72,0.00,,,0.00,LWC V2.00 B2112,2013-09-06 03:47:00,
2013-09-05 20:52:00,72.3,63.1,29.72,WNW,286,1.0,2.0,73,0.00,,,0.00,LWC V2.00 B2112,2013-09-06 03:52:00,
2013-09-05 20:57:00,72.1,63.0,29.72,WNW,286,1.0,2.0,73,0.00,,,0.00,LWC V2.00 B2112,2013-09-06 03:57:00,
2013-09-05 21:01:00,71.9,63.9,29.72,ESE,103,1.0,3.0,76,0.00,,,0.00,LWC V2.00 B2112,2013-09-06 04:01:00,
2013-09-05 21:06:00,71.3,61.8,29.72,NE,50,2.0,4.0,72,0.00,,,0.00,LWC V2.00 B2112,2013-09-06 04:06:00,
2013-09-05 21:11:00,71.6,62.9,29.72,West,263,1.0,3.0,74,0.00,,,0.00,LWC V2.00 B2112,2013-09-06 04:11:00,
2013-09-05 21:16:00,71.6,62.5,29.72,SE,124,2.0,2.0,73,0.00,,,0.00,LWC V2.00 B2112,2013-09-06 04:16:00,
2013-09-05 21:21:00,71.5,63.1,29.72,SE,124,1.0,2.0,75,0.00,,,0.00,LWC V2.00 B2112,2013-09-06 04:21:00,
2013-09-05 21:26:00,71.5,62.4,29.72,ENE,76,3.0,3.0,73,0.00,,,0.00,LWC V2.00 B2112,2013-09-06 04:26:00,
2013-09-05 21:31:00,71.7,62.6,29.73,East,91,0.0,2.0,73,0.00,,,0.00,LWC V2.00 B2112,2013-09-06 04:31:00,
2013-09-05 21:36:00,72.8,61.6,29.76,NE,38,16.0,27.0,68,0.00,,,0.00,LWC V2.00 B2112,2013-09-06 04:36:00,
2013-09-05 21:41:00,72.5,62.5,29.81,West,271,1.0,18.0,71,2.49,,,0.09,LWC V2.00 B2112,2013-09-06 04:41:00,
2013-09-05 21:46:00,69.7,61.4,29.81,ESE,113,6.0,18.0,75,0.74,,,0.18,LWC V2.00 B2112,2013-09-06 04:46:00,
2013-09-05 21:51:00,67.7,61.3,29.83,SSE,149,5.0,9.0,80,0.75,,,0.24,LWC V2.00 B2112,2013-09-06 04:51:00,
2013-09-05 21:56:00,66.6,61.3,29.84,East,97,9.0,9.0,83,0.31,,,0.28,LWC V2.00 B2112,2013-09-06 04:56:00,
2013-09-05 22:01:00,66.2,61.2,29.85,ENE,66,2.0,8.0,84,0.46,,,0.34,LWC V2.00 B2112,2013-09-06 05:01:00,
2013-09-05 22:06:00,66.1,60.8,29.85,WNW,288,2.0,2.0,83,0.15,,,0.35,LWC V2.00 B2112,2013-09-06 05:06:00,
2013-09-05 22:11:00,65.9,61.9,29.84,WNW,298,5.0,6.0,87,0.13,,,0.36,LWC V2.00 B2112,2013-09-06 05:11:00,
2013-09-05 22:16:00,65.3,62.0,29.84,SW,225,1.0,6.0,89,0.13,,,0.38,LWC V2.00 B2112,2013-09-06 05:16:00,
2013-09-05 22:21:00,65.0,61.7,29.84,West,271,2.0,3.0,89,0.16,,,0.39,LWC V2.00 B2112,2013-09-06 05:21:00,
2013-09-05 22:26:00,64.9,61.9,29.84,ESE,104,2.0,2.0,90,0.09,,,0.39,LWC V2.00 B2112,2013-09-06 05:26:00,
2013-09-05 22:31:00,64.5,61.8,29.84,West,277,8.0,10.0,91,0.22,,,0.41,LWC V2.00 B2112,2013-09-06 05:31:00,
2013-09-05 22:36:00,64.6,61.0,29.85,WNW,295,8.0,12.0,88,0.25,,,0.43,LWC V2.00 B2112,2013-09-06 05:36:00,
2013-09-05 22:41:00,65.2,61.9,29.86,NNW,327,5.0,9.0,89,0.10,,,0.44,LWC V2.00 B2112,2013-09-06 05:41:00,
2013-09-05 22:46:00,64.9,61.9,29.87,North,0,4.0,8.0,90,0.17,,,0.45,LWC V2.00 B2112,2013-09-06 05:46:00,
2013-09-05 22:51:00,64.9,61.9,29.88,NE,34,1.0,4.0,90,0.21,,,0.47,LWC V2.00 B2112,2013-09-06 05:51:00,
2013-09-05 22:56:00,64.9,61.9,29.89,West,274,1.0,2.0,90,0.12,,,0.48,LWC V2.00 B2112,2013-09-06 05:56:00,
2013-09-05 23:01:00,64.8,61.8,29.89,NNW,327,3.0,8.0,90,0.15,,,0.49,LWC V2.00 B2112,2013-09-06 06:01:00,
2013-09-05 23:06:00,64.7,62.0,29.89,NNE,25,1.0,1.0,91,0.36,,,0.51,LWC V2.00 B2112,2013-09-06 06:06:00,
2013-09-05 23:11:00,64.6,61.9,29.89,NW,325,3.0,3.0,91,0.24,,,0.53,LWC V2.00 B2112,2013-09-06 06:11:00,
2013-09-05 23:16:00,64.5,61.8,29.89,North,349,0.0,3.0,91,0.39,,,0.55,LWC V2.00 B2112,2013-09-06 06:16:00,
2013-09-05 23:21:00,64.4,62.0,29.89,NW,311,1.0,2.0,92,0.40,,,0.58,LWC V2.00 B2112,2013-09-06 06:21:00,
2013-09-05 23:26:00,64.3,61.9,29.88,North,355,2.0,2.0,92,0.26,,,0.60,LWC V2.00 B2112,2013-09-06 06:26:00,
2013-09-05 23:31:00,64.3,61.9,29.88,WSW,242,2.0,3.0,92,1.29,,,0.70,LWC V2.00 B2112,2013-09-06 06:31:00,
2013-09-05 23:36:00,64.1,62.0,29.88,SW,229,0.0,1.0,93,1.15,,,0.77,LWC V2.00 B2112,2013-09-06 06:36:00,
2013-09-05 23:41:00,64.0,61.9,29.87,SW,229,0.0,2.0,93,0.24,,,0.80,LWC V2.00 B2112,2013-09-06 06:41:00,
2013-09-05 23:46:00,63.9,62.1,29.87,ESE,117,0.0,3.0,94,0.13,,,0.81,LWC V2.00 B2112,2013-09-06 06:46:00,
2013-09-05 23:51:00,63.8,61.7,29.86,NW,309,3.0,3.0,93,0.07,,,0.81,LWC V2.00 B2112,2013-09-06 06:51:00,
2013-09-05 23:56:00,63.7,61.9,29.85,NNW,338,3.0,4.0,94,0.05,,,0.81,LWC V2.00 B2112,2013-09-06 06:56:00,